sensor_id;sensor_type;location;lat;lon;timestamp;pressure;altitude;pressure_sealevel;temperature;humidity
34243;BME280;20504;43.214;27.920;2024-02-15T00:00:29;100398.41;;;8.67;100.00
34243;BME280;20504;43.214;27.920;2024-02-15T00:02:54;100401.06;;;8.51;100.00
34243;BME280;20504;43.214;27.920;2024-02-15T00:05:20;100379.75;;;8.54;100.00
34243;BME280;20504;43.214;27.920;2024-02-15T00:07:45;100416.41;;;8.60;100.00
34243;BME280;20504;43.214;27.920;2024-02-15T00:10:14;100393.13;;;8.67;100.00
34243;BME280;20504;43.214;27.920;2024-02-15T00:12:40;100397.91;;;8.60;100.00
34243;BME280;20504;43.214;27.920;2024-02-15T00:15:06;100409.72;;;8.69;100.00
34243;BME280;20504;43.214;27.920;2024-02-15T00:17:31;100414.53;;;8.62;100.00
34243;BME280;20504;43.214;27.920;2024-02-15T00:19:57;100409.91;;;8.66;100.00
34243;BME280;20504;43.214;27.920;2024-02-15T00:22:23;100411.44;;;8.70;100.00
34243;BME280;20504;43.214;27.920;2024-02-15T00:24:48;100367.94;;;8.45;100.00
34243;BME280;20504;43.214;27.920;2024-02-15T00:27:15;100406.50;;;8.64;100.00
34243;BME280;20504;43.214;27.920;2024-02-15T00:29:40;100411.03;;;8.62;100.00
34243;BME280;20504;43.214;27.920;2024-02-15T00:32:06;100401.31;;;8.62;100.00
34243;BME280;20504;43.214;27.920;2024-02-15T00:34:32;100406.25;;;8.68;100.00
34243;BME280;20504;43.214;27.920;2024-02-15T00:36:58;100383.34;;;8.53;100.00
34243;BME280;20504;43.214;27.920;2024-02-15T00:39:24;100391.78;;;8.60;100.00
34243;BME280;20504;43.214;27.920;2024-02-15T00:41:50;100403.59;;;8.68;100.00
34243;BME280;20504;43.214;27.920;2024-02-15T00:44:16;100353.00;;;8.29;100.00
34243;BME280;20504;43.214;27.920;2024-02-15T00:46:43;100417.66;;;8.69;100.00
34243;BME280;20504;43.214;27.920;2024-02-15T00:49:08;100380.53;;;8.56;100.00
34243;BME280;20504;43.214;27.920;2024-02-15T00:51:35;100412.66;;;8.64;100.00
34243;BME280;20504;43.214;27.920;2024-02-15T00:54:02;100408.41;;;8.62;100.00
34243;BME280;20504;43.214;27.920;2024-02-15T00:56:28;100412.94;;;8.60;100.00
34243;BME280;20504;43.214;27.920;2024-02-15T00:58:56;100360.00;;;8.45;100.00
34243;BME280;20504;43.214;27.920;2024-02-15T01:01:21;100362.41;;;8.34;100.00
34243;BME280;20504;43.214;27.920;2024-02-15T01:03:47;100373.13;;;8.47;100.00
34243;BME280;20504;43.214;27.920;2024-02-15T01:06:13;100387.28;;;8.46;100.00
34243;BME280;20504;43.214;27.920;2024-02-15T01:08:38;100382.25;;;8.57;100.00
34243;BME280;20504;43.214;27.920;2024-02-15T01:11:04;100370.75;;;8.42;100.00
34243;BME280;20504;43.214;27.920;2024-02-15T01:13:30;100359.06;;;8.31;100.00
34243;BME280;20504;43.214;27.920;2024-02-15T01:15:55;100365.81;;;8.36;100.00
34243;BME280;20504;43.214;27.920;2024-02-15T01:18:21;100360.47;;;8.38;100.00
34243;BME280;20504;43.214;27.920;2024-02-15T01:20:46;100319.41;;;8.01;100.00
34243;BME280;20504;43.214;27.920;2024-02-15T01:23:12;100346.00;;;8.59;100.00
34243;BME280;20504;43.214;27.920;2024-02-15T01:25:37;100361.03;;;8.43;100.00
34243;BME280;20504;43.214;27.920;2024-02-15T01:28:05;100361.72;;;8.46;100.00
34243;BME280;20504;43.214;27.920;2024-02-15T01:30:30;100308.41;;;8.08;100.00
34243;BME280;20504;43.214;27.920;2024-02-15T01:32:57;100364.34;;;8.46;100.00
34243;BME280;20504;43.214;27.920;2024-02-15T01:35:23;100363.13;;;8.52;100.00
34243;BME280;20504;43.214;27.920;2024-02-15T01:37:49;100365.69;;;8.54;100.00
34243;BME280;20504;43.214;27.920;2024-02-15T01:40:18;100380.78;;;8.52;100.00
34243;BME280;20504;43.214;27.920;2024-02-15T01:42:47;100374.06;;;8.46;100.00
34243;BME280;20504;43.214;27.920;2024-02-15T01:45:15;100387.69;;;8.54;100.00
34243;BME280;20504;43.214;27.920;2024-02-15T01:47:41;100362.84;;;8.42;100.00
34243;BME280;20504;43.214;27.920;2024-02-15T01:50:10;100360.25;;;8.57;100.00
34243;BME280;20504;43.214;27.920;2024-02-15T01:52:37;100344.09;;;8.61;100.00
34243;BME280;20504;43.214;27.920;2024-02-15T01:55:04;100386.72;;;8.41;100.00
34243;BME280;20504;43.214;27.920;2024-02-15T01:57:35;100389.56;;;8.52;100.00
34243;BME280;20504;43.214;27.920;2024-02-15T02:00:03;100345.00;;;8.30;100.00
34243;BME280;20504;43.214;27.920;2024-02-15T02:02:31;100386.72;;;8.55;100.00
34243;BME280;20504;43.214;27.920;2024-02-15T02:04:59;100406.38;;;8.51;100.00
34243;BME280;20504;43.214;27.920;2024-02-15T02:07:25;100381.81;;;8.33;100.00
34243;BME280;20504;43.214;27.920;2024-02-15T02:09:51;100323.59;;;8.05;100.00
34243;BME280;20504;43.214;27.920;2024-02-15T02:12:17;100331.56;;;8.19;100.00
34243;BME280;20504;43.214;27.920;2024-02-15T02:14:43;100401.75;;;8.55;100.00
34243;BME280;20504;43.214;27.920;2024-02-15T02:17:15;100403.41;;;8.41;100.00
34243;BME280;20504;43.214;27.920;2024-02-15T02:19:42;100399.06;;;8.40;100.00
34243;BME280;20504;43.214;27.920;2024-02-15T02:22:09;100396.66;;;8.36;100.00
34243;BME280;20504;43.214;27.920;2024-02-15T02:24:40;100348.53;;;7.99;100.00
34243;BME280;20504;43.214;27.920;2024-02-15T02:27:12;100352.06;;;8.00;100.00
34243;BME280;20504;43.214;27.920;2024-02-15T02:29:42;100365.47;;;8.27;100.00
34243;BME280;20504;43.214;27.920;2024-02-15T02:32:10;100410.88;;;8.33;100.00
34243;BME280;20504;43.214;27.920;2024-02-15T02:34:36;100371.25;;;8.33;100.00
34243;BME280;20504;43.214;27.920;2024-02-15T02:37:01;100390.38;;;8.23;100.00
34243;BME280;20504;43.214;27.920;2024-02-15T02:39:30;100373.31;;;8.28;100.00
34243;BME280;20504;43.214;27.920;2024-02-15T02:41:57;100359.81;;;8.33;100.00
34243;BME280;20504;43.214;27.920;2024-02-15T02:44:23;100401.94;;;8.52;100.00
34243;BME280;20504;43.214;27.920;2024-02-15T02:46:48;100373.88;;;8.33;100.00
34243;BME280;20504;43.214;27.920;2024-02-15T02:49:14;100407.19;;;8.37;100.00
34243;BME280;20504;43.214;27.920;2024-02-15T02:51:39;100356.34;;;8.16;100.00
34243;BME280;20504;43.214;27.920;2024-02-15T02:54:05;100358.03;;;8.33;100.00
34243;BME280;20504;43.214;27.920;2024-02-15T02:56:32;100443.97;;;8.56;100.00
34243;BME280;20504;43.214;27.920;2024-02-15T02:58:57;100382.69;;;8.18;100.00
34243;BME280;20504;43.214;27.920;2024-02-15T03:01:24;100416.41;;;8.60;100.00
34243;BME280;20504;43.214;27.920;2024-02-15T03:03:52;100344.84;;;8.17;100.00
34243;BME280;20504;43.214;27.920;2024-02-15T03:06:20;100419.16;;;8.59;100.00
34243;BME280;20504;43.214;27.920;2024-02-15T03:08:46;100383.69;;;8.31;100.00
34243;BME280;20504;43.214;27.920;2024-02-15T03:11:12;100440.88;;;8.64;100.00
34243;BME280;20504;43.214;27.920;2024-02-15T03:13:39;100410.81;;;8.35;100.00
34243;BME280;20504;43.214;27.920;2024-02-15T03:16:05;100424.25;;;8.62;100.00
34243;BME280;20504;43.214;27.920;2024-02-15T03:18:31;100458.06;;;8.57;100.00
34243;BME280;20504;43.214;27.920;2024-02-15T03:20:59;100486.00;;;8.61;100.00
34243;BME280;20504;43.214;27.920;2024-02-15T03:23:25;100472.50;;;8.81;100.00
34243;BME280;20504;43.214;27.920;2024-02-15T03:25:50;100487.03;;;8.74;100.00
34243;BME280;20504;43.214;27.920;2024-02-15T03:28:15;100459.66;;;8.59;100.00
34243;BME280;20504;43.214;27.920;2024-02-15T03:30:41;100491.78;;;8.67;100.00
34243;BME280;20504;43.214;27.920;2024-02-15T03:33:08;100496.22;;;8.51;100.00
34243;BME280;20504;43.214;27.920;2024-02-15T03:35:34;100450.38;;;8.36;100.00
34243;BME280;20504;43.214;27.920;2024-02-15T03:38:00;100455.31;;;8.58;100.00
34243;BME280;20504;43.214;27.920;2024-02-15T03:40:26;100478.34;;;8.56;100.00
34243;BME280;20504;43.214;27.920;2024-02-15T03:42:55;100453.38;;;8.46;100.00
34243;BME280;20504;43.214;27.920;2024-02-15T03:45:22;100481.47;;;8.63;100.00
34243;BME280;20504;43.214;27.920;2024-02-15T03:47:50;100465.53;;;8.48;100.00
34243;BME280;20504;43.214;27.920;2024-02-15T03:50:16;100492.06;;;8.63;100.00
34243;BME280;20504;43.214;27.920;2024-02-15T03:52:41;100462.41;;;8.58;100.00
34243;BME280;20504;43.214;27.920;2024-02-15T03:55:07;100463.81;;;8.63;100.00
34243;BME280;20504;43.214;27.920;2024-02-15T03:57:33;100503.56;;;8.77;100.00
34243;BME280;20504;43.214;27.920;2024-02-15T03:59:59;100509.03;;;8.74;100.00
34243;BME280;20504;43.214;27.920;2024-02-15T04:02:25;100493.31;;;8.71;100.00
34243;BME280;20504;43.214;27.920;2024-02-15T04:04:55;100506.03;;;8.65;100.00
34243;BME280;20504;43.214;27.920;2024-02-15T04:07:21;100519.31;;;8.95;100.00
34243;BME280;20504;43.214;27.920;2024-02-15T04:09:47;100526.69;;;9.04;100.00
34243;BME280;20504;43.214;27.920;2024-02-15T04:12:13;100534.34;;;8.78;100.00
34243;BME280;20504;43.214;27.920;2024-02-15T04:14:40;100548.00;;;8.71;100.00
34243;BME280;20504;43.214;27.920;2024-02-15T04:17:06;100553.44;;;8.68;100.00
34243;BME280;20504;43.214;27.920;2024-02-15T04:19:32;100528.72;;;8.53;100.00
34243;BME280;20504;43.214;27.920;2024-02-15T04:21:58;100574.50;;;8.69;100.00
34243;BME280;20504;43.214;27.920;2024-02-15T04:24:26;100571.47;;;8.77;100.00
34243;BME280;20504;43.214;27.920;2024-02-15T04:26:51;100515.25;;;8.42;100.00
34243;BME280;20504;43.214;27.920;2024-02-15T04:29:17;100580.84;;;8.83;100.00
34243;BME280;20504;43.214;27.920;2024-02-15T04:31:46;100596.78;;;8.81;100.00
34243;BME280;20504;43.214;27.920;2024-02-15T04:34:15;100614.78;;;8.90;100.00
34243;BME280;20504;43.214;27.920;2024-02-15T04:36:45;100591.22;;;8.70;100.00
34243;BME280;20504;43.214;27.920;2024-02-15T04:39:15;100574.28;;;8.58;100.00
34243;BME280;20504;43.214;27.920;2024-02-15T04:41:50;100583.38;;;8.37;100.00
34243;BME280;20504;43.214;27.920;2024-02-15T04:44:15;100586.56;;;8.59;100.00
34243;BME280;20504;43.214;27.920;2024-02-15T04:46:41;100626.03;;;8.62;100.00
34243;BME280;20504;43.214;27.920;2024-02-15T04:49:10;100637.81;;;9.04;100.00
34243;BME280;20504;43.214;27.920;2024-02-15T04:51:35;100590.44;;;8.52;100.00
34243;BME280;20504;43.214;27.920;2024-02-15T04:54:02;100671.09;;;8.76;100.00
34243;BME280;20504;43.214;27.920;2024-02-15T04:56:27;100562.63;;;8.29;100.00
34243;BME280;20504;43.214;27.920;2024-02-15T04:58:54;100575.13;;;8.43;100.00
34243;BME280;20504;43.214;27.920;2024-02-15T05:01:19;100562.59;;;8.13;100.00
34243;BME280;20504;43.214;27.920;2024-02-15T05:03:45;100665.81;;;8.76;100.00
34243;BME280;20504;43.214;27.920;2024-02-15T05:06:14;100672.69;;;8.63;100.00
34243;BME280;20504;43.214;27.920;2024-02-15T05:08:39;100651.97;;;8.71;100.00
34243;BME280;20504;43.214;27.920;2024-02-15T05:11:11;100624.03;;;8.34;100.00
34243;BME280;20504;43.214;27.920;2024-02-15T05:13:47;100680.13;;;8.88;100.00
34243;BME280;20504;43.214;27.920;2024-02-15T05:16:16;100721.59;;;8.88;100.00
34243;BME280;20504;43.214;27.920;2024-02-15T05:18:42;100706.06;;;8.82;100.00
34243;BME280;20504;43.214;27.920;2024-02-15T05:21:07;100724.69;;;8.96;100.00
34243;BME280;20504;43.214;27.920;2024-02-15T05:23:36;100715.56;;;9.01;100.00
34243;BME280;20504;43.214;27.920;2024-02-15T05:26:02;100675.91;;;8.53;100.00
34243;BME280;20504;43.214;27.920;2024-02-15T05:28:29;100708.53;;;8.85;100.00
34243;BME280;20504;43.214;27.920;2024-02-15T05:31:20;100769.69;;;9.27;100.00
34243;BME280;20504;43.214;27.920;2024-02-15T05:33:47;100784.25;;;9.03;100.00
34243;BME280;20504;43.214;27.920;2024-02-15T05:36:17;100768.28;;;8.89;100.00
34243;BME280;20504;43.214;27.920;2024-02-15T05:38:50;100797.78;;;9.14;100.00
34243;BME280;20504;43.214;27.920;2024-02-15T05:41:19;100758.41;;;8.59;100.00
34243;BME280;20504;43.214;27.920;2024-02-15T05:43:46;100718.91;;;8.56;100.00
34243;BME280;20504;43.214;27.920;2024-02-15T05:46:14;100801.69;;;9.07;100.00
34243;BME280;20504;43.214;27.920;2024-02-15T05:48:39;100784.72;;;8.78;100.00
34243;BME280;20504;43.214;27.920;2024-02-15T05:51:06;100792.16;;;8.87;100.00
34243;BME280;20504;43.214;27.920;2024-02-15T05:53:33;100827.91;;;9.12;100.00
34243;BME280;20504;43.214;27.920;2024-02-15T05:56:02;100818.63;;;9.20;100.00
34243;BME280;20504;43.214;27.920;2024-02-15T05:58:30;100818.63;;;9.20;100.00
34243;BME280;20504;43.214;27.920;2024-02-15T06:00:55;100799.75;;;8.77;100.00
34243;BME280;20504;43.214;27.920;2024-02-15T06:03:26;100870.16;;;9.13;100.00
34243;BME280;20504;43.214;27.920;2024-02-15T06:05:52;100850.38;;;9.20;100.00
34243;BME280;20504;43.214;27.920;2024-02-15T06:08:23;100880.94;;;9.26;100.00
34243;BME280;20504;43.214;27.920;2024-02-15T06:10:48;100877.22;;;9.30;100.00
34243;BME280;20504;43.214;27.920;2024-02-15T06:13:15;100892.06;;;9.32;100.00
34243;BME280;20504;43.214;27.920;2024-02-15T06:15:40;100844.50;;;8.98;100.00
34243;BME280;20504;43.214;27.920;2024-02-15T06:18:06;100888.78;;;9.27;100.00
34243;BME280;20504;43.214;27.920;2024-02-15T06:20:35;100908.47;;;9.39;100.00
34243;BME280;20504;43.214;27.920;2024-02-15T06:23:02;100881.16;;;9.38;100.00
34243;BME280;20504;43.214;27.920;2024-02-15T06:25:33;100870.81;;;9.01;100.00
34243;BME280;20504;43.214;27.920;2024-02-15T06:27:58;100937.63;;;9.55;100.00
34243;BME280;20504;43.214;27.920;2024-02-15T06:30:28;100947.03;;;9.60;100.00
34243;BME280;20504;43.214;27.920;2024-02-15T06:33:12;100945.03;;;9.15;100.00
34243;BME280;20504;43.214;27.920;2024-02-15T06:35:56;100949.13;;;9.38;100.00
34243;BME280;20504;43.214;27.920;2024-02-15T06:38:40;100890.56;;;9.11;100.00
34243;BME280;20504;43.214;27.920;2024-02-15T06:41:24;100960.69;;;9.53;100.00
34243;BME280;20504;43.214;27.920;2024-02-15T06:43:50;100921.22;;;9.15;100.00
34243;BME280;20504;43.214;27.920;2024-02-15T06:46:16;100938.97;;;9.13;100.00
34243;BME280;20504;43.214;27.920;2024-02-15T06:48:44;100930.84;;;9.33;100.00
34243;BME280;20504;43.214;27.920;2024-02-15T06:51:12;100961.00;;;9.47;100.00
34243;BME280;20504;43.214;27.920;2024-02-15T06:53:39;100929.44;;;9.09;100.00
34243;BME280;20504;43.214;27.920;2024-02-15T06:56:05;100970.81;;;9.45;100.00
34243;BME280;20504;43.214;27.920;2024-02-15T06:58:31;100909.19;;;9.25;100.00
34243;BME280;20504;43.214;27.920;2024-02-15T07:00:58;100987.53;;;9.62;100.00
34243;BME280;20504;43.214;27.920;2024-02-15T07:03:24;100979.75;;;9.59;100.00
34243;BME280;20504;43.214;27.920;2024-02-15T07:05:50;100989.66;;;9.56;100.00
34243;BME280;20504;43.214;27.920;2024-02-15T07:08:16;100982.31;;;9.61;100.00
34243;BME280;20504;43.214;27.920;2024-02-15T07:10:41;100990.50;;;9.56;100.00
34243;BME280;20504;43.214;27.920;2024-02-15T07:13:06;100919.78;;;9.25;100.00
34243;BME280;20504;43.214;27.920;2024-02-15T07:15:33;100944.28;;;9.29;100.00
34243;BME280;20504;43.214;27.920;2024-02-15T07:18:06;100960.41;;;9.24;100.00
34243;BME280;20504;43.214;27.920;2024-02-15T07:20:34;101020.75;;;9.52;100.00
34243;BME280;20504;43.214;27.920;2024-02-15T07:23:00;100923.19;;;9.12;100.00
34243;BME280;20504;43.214;27.920;2024-02-15T07:25:25;100942.25;;;9.51;100.00
34243;BME280;20504;43.214;27.920;2024-02-15T07:27:51;100975.06;;;9.64;100.00
34243;BME280;20504;43.214;27.920;2024-02-15T07:30:18;100996.91;;;9.52;100.00
34243;BME280;20504;43.214;27.920;2024-02-15T07:32:44;101015.03;;;9.60;100.00
34243;BME280;20504;43.214;27.920;2024-02-15T07:35:12;100967.72;;;9.36;100.00
34243;BME280;20504;43.214;27.920;2024-02-15T07:37:51;100983.59;;;9.54;100.00
34243;BME280;20504;43.214;27.920;2024-02-15T07:40:17;100950.59;;;9.44;100.00
34243;BME280;20504;43.214;27.920;2024-02-15T07:42:44;100997.03;;;9.66;100.00
34243;BME280;20504;43.214;27.920;2024-02-15T07:45:12;101051.47;;;9.72;100.00
34243;BME280;20504;43.214;27.920;2024-02-15T07:47:39;100936.41;;;9.45;100.00
34243;BME280;20504;43.214;27.920;2024-02-15T07:50:05;100942.50;;;9.62;100.00
34243;BME280;20504;43.214;27.920;2024-02-15T07:52:51;101013.97;;;9.80;100.00
34243;BME280;20504;43.214;27.920;2024-02-15T07:55:27;100965.94;;;9.37;100.00
34243;BME280;20504;43.214;27.920;2024-02-15T07:57:53;100979.50;;;9.31;100.00
34243;BME280;20504;43.214;27.920;2024-02-15T08:00:21;101105.81;;;9.96;100.00
34243;BME280;20504;43.214;27.920;2024-02-15T08:02:46;101037.25;;;9.57;100.00
34243;BME280;20504;43.214;27.920;2024-02-15T08:05:13;101033.41;;;9.63;100.00
34243;BME280;20504;43.214;27.920;2024-02-15T08:07:44;101097.88;;;9.96;100.00
34243;BME280;20504;43.214;27.920;2024-02-15T08:10:13;101109.94;;;10.02;100.00
34243;BME280;20504;43.214;27.920;2024-02-15T08:12:46;101097.25;;;9.91;100.00
34243;BME280;20504;43.214;27.920;2024-02-15T08:15:12;101015.69;;;9.81;100.00
34243;BME280;20504;43.214;27.920;2024-02-15T08:17:41;101047.03;;;9.73;100.00
34243;BME280;20504;43.214;27.920;2024-02-15T08:20:11;101069.97;;;10.07;100.00
34243;BME280;20504;43.214;27.920;2024-02-15T08:22:37;101060.56;;;10.17;100.00
34243;BME280;20504;43.214;27.920;2024-02-15T08:25:08;101058.47;;;9.90;100.00
34243;BME280;20504;43.214;27.920;2024-02-15T08:27:42;101065.56;;;10.23;100.00
34243;BME280;20504;43.214;27.920;2024-02-15T08:30:13;101067.13;;;10.43;100.00
34243;BME280;20504;43.214;27.920;2024-02-15T08:32:43;101015.34;;;10.04;100.00
34243;BME280;20504;43.214;27.920;2024-02-15T08:35:09;101071.31;;;10.31;100.00
34243;BME280;20504;43.214;27.920;2024-02-15T08:37:39;101047.19;;;10.02;100.00
34243;BME280;20504;43.214;27.920;2024-02-15T08:40:06;101056.63;;;10.08;100.00
34243;BME280;20504;43.214;27.920;2024-02-15T08:42:43;101103.66;;;10.20;100.00
34243;BME280;20504;43.214;27.920;2024-02-15T08:45:10;101110.47;;;10.26;100.00
34243;BME280;20504;43.214;27.920;2024-02-15T08:47:39;101126.47;;;10.24;100.00
34243;BME280;20504;43.214;27.920;2024-02-15T08:50:06;101115.47;;;9.97;100.00
34243;BME280;20504;43.214;27.920;2024-02-15T08:52:34;101096.06;;;9.97;100.00
34243;BME280;20504;43.214;27.920;2024-02-15T08:55:02;101110.38;;;10.27;100.00
34243;BME280;20504;43.214;27.920;2024-02-15T08:57:28;101067.88;;;9.96;100.00
34243;BME280;20504;43.214;27.920;2024-02-15T08:59:53;101049.00;;;10.18;100.00
34243;BME280;20504;43.214;27.920;2024-02-15T09:02:28;101049.50;;;10.26;100.00
34243;BME280;20504;43.214;27.920;2024-02-15T09:04:53;101030.94;;;10.26;100.00
34243;BME280;20504;43.214;27.920;2024-02-15T09:07:19;101054.56;;;10.13;100.00
34243;BME280;20504;43.214;27.920;2024-02-15T09:09:46;101041.47;;;10.27;100.00
34243;BME280;20504;43.214;27.920;2024-02-15T09:12:13;101118.31;;;10.60;100.00
34243;BME280;20504;43.214;27.920;2024-02-15T09:14:40;101069.69;;;10.28;100.00
34243;BME280;20504;43.214;27.920;2024-02-15T09:17:06;101068.41;;;10.18;100.00
34243;BME280;20504;43.214;27.920;2024-02-15T09:19:35;101125.22;;;10.47;100.00
34243;BME280;20504;43.214;27.920;2024-02-15T09:22:02;101057.22;;;10.13;100.00
34243;BME280;20504;43.214;27.920;2024-02-15T09:24:32;101048.41;;;10.13;100.00
34243;BME280;20504;43.214;27.920;2024-02-15T09:27:01;101079.03;;;10.67;100.00
34243;BME280;20504;43.214;27.920;2024-02-15T09:29:31;101117.59;;;10.57;100.00
34243;BME280;20504;43.214;27.920;2024-02-15T09:31:59;101048.91;;;10.52;100.00
34243;BME280;20504;43.214;27.920;2024-02-15T09:34:27;101061.47;;;10.33;100.00
34243;BME280;20504;43.214;27.920;2024-02-15T09:36:53;101021.13;;;10.11;100.00
34243;BME280;20504;43.214;27.920;2024-02-15T09:39:19;101094.59;;;10.89;100.00
34243;BME280;20504;43.214;27.920;2024-02-15T09:41:44;101067.66;;;10.81;100.00
34243;BME280;20504;43.214;27.920;2024-02-15T09:44:10;101127.47;;;11.02;100.00
34243;BME280;20504;43.214;27.920;2024-02-15T09:46:52;101111.66;;;11.15;100.00
34243;BME280;20504;43.214;27.920;2024-02-15T09:49:20;101141.41;;;11.21;100.00
34243;BME280;20504;43.214;27.920;2024-02-15T09:51:47;101142.44;;;11.19;100.00
34243;BME280;20504;43.214;27.920;2024-02-15T09:54:14;101099.97;;;11.03;100.00
34243;BME280;20504;43.214;27.920;2024-02-15T09:56:50;101154.75;;;11.36;100.00
34243;BME280;20504;43.214;27.920;2024-02-15T09:59:18;101177.91;;;11.64;100.00
34243;BME280;20504;43.214;27.920;2024-02-15T10:01:47;101127.38;;;11.34;100.00
34243;BME280;20504;43.214;27.920;2024-02-15T10:04:13;101145.00;;;11.50;100.00
34243;BME280;20504;43.214;27.920;2024-02-15T10:06:42;101167.75;;;11.40;100.00
34243;BME280;20504;43.214;27.920;2024-02-15T10:09:43;101235.19;;;11.38;100.00
34243;BME280;20504;43.214;27.920;2024-02-15T10:13:03;101240.59;;;11.36;100.00
34243;BME280;20504;43.214;27.920;2024-02-15T10:21:26;101247.78;;;11.18;100.00
34243;BME280;20504;43.214;27.920;2024-02-15T10:24:30;101262.06;;;11.47;100.00
34243;BME280;20504;43.214;27.920;2024-02-15T10:27:04;101269.88;;;11.19;100.00
34243;BME280;20504;43.214;27.920;2024-02-15T10:30:19;101276.47;;;11.28;100.00
34243;BME280;20504;43.214;27.920;2024-02-15T10:47:12;101284.09;;;11.65;100.00
34243;BME280;20504;43.214;27.920;2024-02-15T10:49:47;101220.78;;;11.10;100.00
34243;BME280;20504;43.214;27.920;2024-02-15T10:55:02;101267.78;;;11.87;100.00
34243;BME280;20504;43.214;27.920;2024-02-15T10:57:48;101328.50;;;11.95;100.00
34243;BME280;20504;43.214;27.920;2024-02-15T11:00:49;101307.72;;;12.01;100.00
34243;BME280;20504;43.214;27.920;2024-02-15T11:03:36;101248.75;;;11.95;100.00
34243;BME280;20504;43.214;27.920;2024-02-15T11:06:18;101306.13;;;12.29;100.00
34243;BME280;20504;43.214;27.920;2024-02-15T11:09:10;101251.94;;;12.16;100.00
34243;BME280;20504;43.214;27.920;2024-02-15T11:12:02;101266.56;;;12.23;100.00
34243;BME280;20504;43.214;27.920;2024-02-15T11:21:07;101323.63;;;12.33;100.00
34243;BME280;20504;43.214;27.920;2024-02-15T11:26:47;101345.66;;;12.65;100.00
34243;BME280;20504;43.214;27.920;2024-02-15T11:36:38;101370.41;;;12.51;100.00
34243;BME280;20504;43.214;27.920;2024-02-15T11:48:28;101363.06;;;11.79;100.00
34243;BME280;20504;43.214;27.920;2024-02-15T11:51:38;101303.81;;;11.61;100.00
34243;BME280;20504;43.214;27.920;2024-02-15T11:54:48;101279.38;;;11.86;100.00
34243;BME280;20504;43.214;27.920;2024-02-15T11:57:21;101331.84;;;11.82;100.00
34243;BME280;20504;43.214;27.920;2024-02-15T12:00:08;101298.91;;;12.01;100.00
34243;BME280;20504;43.214;27.920;2024-02-15T12:02:52;101346.66;;;12.02;100.00
34243;BME280;20504;43.214;27.920;2024-02-15T12:23:43;101290.22;;;12.13;100.00
34243;BME280;20504;43.214;27.920;2024-02-15T12:26:14;101397.69;;;12.55;100.00
34243;BME280;20504;43.214;27.920;2024-02-15T12:28:41;101372.06;;;12.38;100.00
34243;BME280;20504;43.214;27.920;2024-02-15T12:31:08;101387.13;;;12.83;100.00
34243;BME280;20504;43.214;27.920;2024-02-15T12:33:35;101376.16;;;12.73;100.00
34243;BME280;20504;43.214;27.920;2024-02-15T12:36:04;101358.81;;;12.52;100.00
34243;BME280;20504;43.214;27.920;2024-02-15T12:38:31;101409.03;;;13.02;100.00
34243;BME280;20504;43.214;27.920;2024-02-15T12:40:57;101416.31;;;12.85;100.00
34243;BME280;20504;43.214;27.920;2024-02-15T12:43:24;101375.09;;;13.06;100.00
34243;BME280;20504;43.214;27.920;2024-02-15T12:45:50;101408.81;;;13.21;100.00
34243;BME280;20504;43.214;27.920;2024-02-15T12:48:18;101379.25;;;12.96;100.00
34243;BME280;20504;43.214;27.920;2024-02-15T12:50:49;101418.97;;;13.43;100.00
34243;BME280;20504;43.214;27.920;2024-02-15T12:53:23;101426.28;;;13.54;100.00
34243;BME280;20504;43.214;27.920;2024-02-15T12:55:53;101418.41;;;13.24;100.00
34243;BME280;20504;43.214;27.920;2024-02-15T12:58:20;101409.19;;;13.44;100.00
34243;BME280;20504;43.214;27.920;2024-02-15T13:00:46;101380.34;;;13.22;100.00
34243;BME280;20504;43.214;27.920;2024-02-15T13:03:11;101423.25;;;13.31;100.00
34243;BME280;20504;43.214;27.920;2024-02-15T13:05:42;101441.81;;;13.47;100.00
34243;BME280;20504;43.214;27.920;2024-02-15T13:08:12;101437.44;;;13.46;100.00
34243;BME280;20504;43.214;27.920;2024-02-15T13:10:43;101396.19;;;13.09;100.00
34243;BME280;20504;43.214;27.920;2024-02-15T13:13:12;101416.06;;;13.03;100.00
34243;BME280;20504;43.214;27.920;2024-02-15T13:15:44;101386.09;;;13.14;100.00
34243;BME280;20504;43.214;27.920;2024-02-15T13:18:13;101420.69;;;13.30;100.00
34243;BME280;20504;43.214;27.920;2024-02-15T13:20:39;101476.06;;;13.53;100.00
34243;BME280;20504;43.214;27.920;2024-02-15T13:23:23;101485.41;;;13.75;100.00
34243;BME280;20504;43.214;27.920;2024-02-15T13:26:05;101408.19;;;13.02;100.00
34243;BME280;20504;43.214;27.920;2024-02-15T13:28:36;101467.88;;;13.56;100.00
34243;BME280;20504;43.214;27.920;2024-02-15T13:31:27;101439.63;;;13.54;100.00
34243;BME280;20504;43.214;27.920;2024-02-15T13:34:03;101501.31;;;13.62;100.00
34243;BME280;20504;43.214;27.920;2024-02-15T13:36:35;101462.16;;;13.34;100.00
34243;BME280;20504;43.214;27.920;2024-02-15T13:39:47;101491.00;;;13.56;100.00
34243;BME280;20504;43.214;27.920;2024-02-15T13:42:18;101508.44;;;13.47;100.00
34243;BME280;20504;43.214;27.920;2024-02-15T13:44:46;101491.78;;;13.72;100.00
34243;BME280;20504;43.214;27.920;2024-02-15T13:47:15;101514.66;;;13.76;100.00
34243;BME280;20504;43.214;27.920;2024-02-15T13:49:53;101444.88;;;13.41;100.00
34243;BME280;20504;43.214;27.920;2024-02-15T13:52:19;101521.56;;;14.07;100.00
34243;BME280;20504;43.214;27.920;2024-02-15T13:54:47;101482.09;;;13.43;100.00